Time;durP1;ratioP1;P1;durP2;ratioP2;P2;SDS_P1;SDS_P2;PMS_P1;PMS_P2;Temp;Humidity;BMP_temperature;BMP_pressure;BME280_temperature;BME280_humidity;BME280_pressure;Samples;Min_cycle;Max_cycle;Signal;HPM_P1;HPM_P2
2022/01/19 02:56:34;;;;;;;103.05;54.63;;;;;;;5.40;100.00;102235.69;5756916;23;20014;-82
2022/01/19 06:26:36;;;;;;;133.23;59.15;;;;;;;4.18;100.00;102140.91;5538784;23;20066;-84
2022/01/19 06:31:44;;;;;;;123.35;59.40;;;;;;;4.15;100.00;102144.56;5435637;23;20412;-84
2022/01/19 07:27:21;;;;;;;103.18;50.28;;;;;;;4.33;100.00;102145.38;5734712;23;20039;-85
2022/01/19 07:29:54;;;;;;;111.15;51.70;;;;;;;4.46;100.00;102146.41;4979654;28;20024;-84
2022/01/19 07:32:24;;;;;;;97.50;50.50;;;;;;;4.58;100.00;102156.22;4963231;28;20023;-84
2022/01/19 07:40:58;;;;;;;100.50;49.88;;;;;;;4.47;100.00;102153.34;4938169;29;20057;-84
2022/01/19 07:43:23;;;;;;;99.38;48.55;;;;;;;4.42;100.00;102155.38;4890857;29;20165;-84
2022/01/19 07:46:08;;;;;;;104.32;49.10;;;;;;;4.39;100.00;102149.44;4908710;29;20079;-83
2022/01/19 07:48:45;;;;;;;92.20;48.65;;;;;;;4.52;100.00;102151.31;4896547;29;20428;-84
2022/01/19 07:51:32;;;;;;;101.45;49.88;;;;;;;4.58;100.00;102147.50;4923934;29;20052;-87
2022/01/19 07:54:29;;;;;;;99.30;48.70;;;;;;;4.64;100.00;102160.28;4898988;29;20041;-85
2022/01/19 07:57:05;;;;;;;98.80;48.95;;;;;;;4.74;100.00;102158.03;4915503;29;20047;-85
2022/01/19 08:00:03;;;;;;;104.15;49.42;;;;;;;4.68;100.00;102157.41;4892824;29;20052;-84
2022/01/19 08:02:49;;;;;;;105.97;48.50;;;;;;;4.94;100.00;102152.50;4897916;29;20131;-85
2022/01/19 08:06:00;;;;;;;93.95;48.33;;;;;;;4.74;100.00;102153.59;4901907;29;20063;-85
2022/01/19 08:08:28;;;;;;;98.50;49.08;;;;;;;4.82;100.00;102147.94;4893924;29;20538;-83
2022/01/19 08:10:54;;;;;;;100.88;49.00;;;;;;;4.86;100.00;102150.31;4903343;29;20056;-85
2022/01/19 08:13:21;;;;;;;99.68;48.78;;;;;;;4.80;100.00;102148.03;4888600;29;20037;-86
2022/01/19 08:16:11;;;;;;;100.63;49.97;;;;;;;4.94;100.00;102142.00;4880823;29;20108;-85
2022/01/19 08:18:40;;;;;;;140.90;51.08;;;;;;;5.03;100.00;102144.97;4940351;29;20035;-82
2022/01/19 08:21:06;;;;;;;121.85;50.63;;;;;;;5.19;100.00;102144.91;4956899;23;20409;-85
2022/01/19 08:23:46;;;;;;;142.45;50.47;;;;;;;5.44;100.00;102139.94;4947177;29;20041;-86
2022/01/19 08:26:13;;;;;;;116.88;52.67;;;;;;;5.38;100.00;102148.19;4962865;29;20513;-87
2022/01/19 08:28:40;;;;;;;97.28;49.90;;;;;;;5.34;100.00;102143.16;4952124;29;20027;-84
2022/01/19 08:31:06;;;;;;;111.30;50.75;;;;;;;5.38;100.00;102140.28;4958859;29;20051;-86
2022/01/19 08:33:51;;;;;;;110.05;54.70;;;;;;;5.20;100.00;102138.75;4960479;29;20054;-86
2022/01/19 08:36:23;;;;;;;114.07;54.55;;;;;;;5.04;100.00;102137.91;4926045;29;20044;-85
2022/01/19 08:39:07;;;;;;;113.35;55.97;;;;;;;5.04;100.00;102137.91;4949521;29;20090;-86
2022/01/19 08:41:39;;;;;;;112.05;55.05;;;;;;;5.11;100.00;102128.72;4947626;29;20042;-86
2022/01/19 08:44:14;;;;;;;117.85;55.92;;;;;;;5.13;100.00;102138.25;4942066;29;20039;-88
2022/01/19 08:46:50;;;;;;;117.47;56.60;;;;;;;5.35;100.00;102132.59;4933539;29;20047;-86
2022/01/19 08:49:28;;;;;;;146.63;56.30;;;;;;;5.34;100.00;102140.53;4965193;29;20087;-86
2022/01/19 08:52:27;;;;;;;142.93;54.63;;;;;;;5.55;100.00;102134.03;4965627;29;20047;-88
2022/01/19 08:55:09;;;;;;;164.65;55.17;;;;;;;5.73;100.00;102136.41;4933314;29;20043;-87
2022/01/19 08:57:38;;;;;;;119.03;52.67;;;;;;;5.72;100.00;102124.22;4929671;29;20036;-85
2022/01/19 09:00:09;;;;;;;159.02;57.47;;;;;;;5.67;100.00;102133.31;4962651;29;20034;-88
2022/01/19 09:02:36;;;;;;;283.85;66.93;;;;;;;5.63;100.00;102127.38;4932292;29;20035;-86
2022/01/19 09:05:03;;;;;;;200.02;59.38;;;;;;;5.68;100.00;102125.34;4956442;28;20282;-84
2022/01/19 09:07:29;;;;;;;215.15;57.45;;;;;;;5.63;100.00;102130.00;4958657;29;20045;-85
2022/01/19 09:09:54;;;;;;;191.48;59.10;;;;;;;5.83;100.00;102117.47;4958847;29;20059;-84
2022/01/19 09:12:20;;;;;;;195.88;59.78;;;;;;;5.69;100.00;102115.66;4927860;29;20035;-85
2022/01/19 09:14:46;;;;;;;136.82;57.63;;;;;;;5.67;100.00;102126.25;4960541;29;20031;-85
2022/01/19 09:17:11;;;;;;;133.25;59.03;;;;;;;5.68;100.00;102135.84;4957897;29;20158;-84
2022/01/19 09:19:39;;;;;;;164.27;58.53;;;;;;;5.67;100.00;102131.53;4952469;29;20044;-88
2022/01/19 09:22:09;;;;;;;131.25;55.38;;;;;;;5.69;100.00;102124.41;4956428;29;20046;-87
2022/01/19 09:24:37;;;;;;;122.35;54.65;;;;;;;5.73;100.00;102122.44;4956759;29;20515;-85
2022/01/19 09:27:05;;;;;;;111.05;52.53;;;;;;;5.64;100.00;102121.19;4964312;28;20043;-86
2022/01/19 09:29:31;;;;;;;115.68;54.67;;;;;;;5.57;100.00;102122.47;4961750;29;20039;-85
2022/01/19 09:32:00;;;;;;;113.28;52.80;;;;;;;5.71;100.00;102108.50;4960279;29;20035;-87
2022/01/19 09:34:26;;;;;;;114.28;53.70;;;;;;;5.68;100.00;102112.19;4961801;29;20031;-86
2022/01/19 09:36:53;;;;;;;114.22;53.90;;;;;;;5.74;100.00;102113.59;4944150;29;20556;-85
2022/01/19 09:39:22;;;;;;;119.32;54.58;;;;;;;5.80;100.00;102112.41;4960927;29;20045;-86
2022/01/19 09:41:49;;;;;;;111.57;54.67;;;;;;;5.81;100.00;102111.44;4947432;29;20046;-86
2022/01/19 09:44:19;;;;;;;118.70;55.30;;;;;;;5.82;100.00;102116.63;4964166;29;20114;-87
2022/01/19 09:46:46;;;;;;;118.22;55.70;;;;;;;5.81;100.00;102114.06;4963186;28;20111;-88
2022/01/19 09:49:17;;;;;;;129.10;56.55;;;;;;;5.90;100.00;102113.56;4956081;28;20560;-87
2022/01/19 09:51:44;;;;;;;108.22;53.35;;;;;;;5.88;100.00;102112.78;4955388;28;20074;-85
2022/01/19 09:54:23;;;;;;;110.57;54.63;;;;;;;5.90;100.00;102103.03;4963311;28;20404;-86
2022/01/19 09:56:48;;;;;;;111.40;56.63;;;;;;;5.86;100.00;102107.63;4961619;29;20481;-88
2022/01/19 09:59:16;;;;;;;104.50;54.13;;;;;;;6.02;100.00;102102.28;4954680;29;20040;-87
2022/01/19 10:02:16;;;;;;;113.50;55.85;;;;;;;6.09;100.00;102103.59;4953671;29;20035;-85
2022/01/19 10:04:47;;;;;;;126.55;54.55;;;;;;;6.11;100.00;102113.09;4921341;29;20099;-85
2022/01/19 10:07:19;;;;;;;137.70;55.17;;;;;;;6.04;100.00;102105.66;4935796;29;20021;-86
2022/01/19 10:10:07;;;;;;;113.32;55.28;;;;;;;6.01;100.00;102101.44;4914075;29;20085;-87
2022/01/19 10:18:26;;;;;;;128.85;54.92;;;;;;;6.07;100.00;102085.25;4972526;29;20031;-87
2022/01/19 10:21:35;;;;;;;131.88;54.90;;;;;;;6.11;100.00;102085.91;4972133;29;20039;-88
2022/01/19 10:24:38;;;;;;;132.02;54.35;;;;;;;6.03;100.00;102080.28;5062709;23;20057;-86
2022/01/19 10:38:34;;;;;;;109.72;54.17;;;;;;;6.20;100.00;102053.75;4952742;29;20048;-83
2022/01/19 10:41:12;;;;;;;132.75;58.78;;;;;;;6.21;100.00;102055.44;4937143;29;20035;-84
2022/01/19 10:43:45;;;;;;;133.52;57.95;;;;;;;6.28;100.00;102045.38;4938791;29;20040;-86
2022/01/19 10:48:51;;;;;;;145.20;61.58;;;;;;;6.36;100.00;102036.06;4946222;29;20048;-84
2022/01/19 10:51:48;;;;;;;137.50;61.17;;;;;;;6.47;100.00;102030.94;4924016;29;20032;-83
2022/01/19 10:54:26;;;;;;;129.35;61.08;;;;;;;6.53;100.00;102025.25;4952863;29;20068;-82
2022/01/19 10:57:16;;;;;;;135.60;61.42;;;;;;;6.56;100.00;102025.06;4967571;23;20051;-85
2022/01/19 11:00:29;;;;;;;144.27;62.25;;;;;;;6.71;100.00;102020.59;4966933;28;20106;-83
2022/01/19 11:03:12;;;;;;;128.18;58.40;;;;;;;6.83;100.00;102019.78;4909073;29;20088;-83
2022/01/19 11:06:26;;;;;;;122.38;58.47;;;;;;;6.96;100.00;102012.75;4910162;29;20176;-85
2022/01/19 11:09:23;;;;;;;128.10;61.35;;;;;;;7.00;100.00;101994.94;4892338;29;20206;-81
2022/01/19 11:11:53;;;;;;;120.20;60.88;;;;;;;7.07;100.00;102004.97;4893998;29;21333;-83
2022/01/19 11:14:24;;;;;;;117.72;58.58;;;;;;;7.18;100.00;101998.97;4950470;28;20165;-84
2022/01/19 11:16:51;;;;;;;125.82;61.78;;;;;;;7.11;100.00;101995.06;4960053;28;20148;-83
2022/01/19 11:19:18;;;;;;;131.00;62.85;;;;;;;7.18;100.00;101983.16;4972643;28;20078;-83
2022/01/19 11:21:51;;;;;;;148.50;63.60;;;;;;;7.19;100.00;101982.22;4930223;29;20124;-84
2022/01/19 11:24:34;;;;;;;139.35;63.95;;;;;;;7.35;100.00;101972.31;4950875;29;20444;-79
2022/01/19 11:27:00;;;;;;;125.90;61.83;;;;;;;7.33;100.00;101968.06;4970616;28;20043;-83
2022/01/19 11:29:26;;;;;;;126.72;62.63;;;;;;;7.32;100.00;101964.59;4975912;28;20504;-85
2022/01/19 11:31:54;;;;;;;124.28;64.18;;;;;;;7.15;100.00;101951.72;4979494;28;20034;-82
2022/01/19 11:34:43;;;;;;;136.07;70.78;;;;;;;7.23;100.00;101949.41;4950912;29;20062;-84
2022/01/19 11:37:09;;;;;;;130.10;66.03;;;;;;;7.27;100.00;101946.44;4964545;28;20039;-83
2022/01/19 11:39:34;;;;;;;124.47;66.35;;;;;;;7.18;100.00;101940.97;4990950;28;20069;-78
2022/01/19 11:42:03;;;;;;;138.00;67.32;;;;;;;7.17;100.00;101939.28;4983736;28;20043;-79
2022/01/19 11:44:29;;;;;;;139.98;68.72;;;;;;;7.31;100.00;101941.81;4973630;28;20069;-80
2022/01/19 11:46:57;;;;;;;133.50;68.03;;;;;;;7.23;100.00;101925.66;4973386;29;20035;-82
2022/01/19 11:49:45;;;;;;;142.23;66.95;;;;;;;7.29;100.00;101925.25;4967240;29;20389;-84
2022/01/19 11:52:10;;;;;;;140.30;70.00;;;;;;;7.25;100.00;101921.16;4962373;29;20045;-82
2022/01/19 11:54:37;;;;;;;140.07;70.13;;;;;;;7.32;100.00;101918.91;4974663;28;20105;-83
2022/01/19 11:57:13;;;;;;;147.90;70.85;;;;;;;7.40;100.00;101912.16;4973739;28;20070;-83
2022/01/19 11:59:47;;;;;;;140.80;70.53;;;;;;;7.41;100.00;101903.28;4976514;28;20051;-84
2022/01/19 12:02:26;;;;;;;144.40;71.68;;;;;;;7.45;100.00;101904.78;4970961;28;20062;-84
2022/01/19 12:04:58;;;;;;;145.00;70.60;;;;;;;7.46;100.00;101890.59;4963565;28;20023;-86
2022/01/19 12:07:36;;;;;;;146.75;73.43;;;;;;;7.43;100.00;101885.56;4977503;28;20031;-85
2022/01/19 12:10:07;;;;;;;145.25;70.75;;;;;;;7.57;100.00;101882.78;4974309;28;20127;-86
2022/01/19 12:12:39;;;;;;;135.43;69.82;;;;;;;7.54;100.00;101871.59;4970378;28;20034;-86
2022/01/19 12:15:53;;;;;;;143.48;68.65;;;;;;;7.69;100.00;101868.69;4954239;28;20043;-88
2022/01/19 12:18:57;;;;;;;139.95;70.43;;;;;;;7.71;100.00;101864.19;4969506;28;20043;-84
2022/01/19 12:21:45;;;;;;;141.18;71.22;;;;;;;7.79;100.00;101856.53;4953622;28;20130;-86
2022/01/19 12:24:22;;;;;;;136.40;70.43;;;;;;;7.82;100.00;101847.56;4963614;28;20043;-86
2022/01/19 12:27:09;;;;;;;137.68;69.43;;;;;;;7.87;100.00;101834.88;4958829;28;20094;-83
2022/01/19 12:29:41;;;;;;;139.75;70.95;;;;;;;7.92;100.00;101824.78;4968398;28;20054;-85
2022/01/19 12:33:03;;;;;;;132.85;70.90;;;;;;;7.93;100.00;101821.22;4955148;28;20038;-82
2022/01/19 12:36:06;;;;;;;135.13;69.55;;;;;;;7.92;100.00;101802.88;4983058;28;20041;-80
2022/01/19 13:05:21;;;;;;;128.68;66.40;;;;;;;7.62;100.00;101738.19;4952291;29;20290;-84
2022/01/19 13:12:12;;;;;;;130.80;64.95;;;;;;;7.77;100.00;101718.59;4918125;29;20077;-82
2022/01/19 13:14:37;;;;;;;121.45;61.05;;;;;;;7.74;100.00;101718.81;4910085;29;20063;-86
2022/01/19 13:17:03;;;;;;;120.03;57.88;;;;;;;7.74;100.00;101713.53;4911763;29;20517;-86
2022/01/19 13:19:47;;;;;;;119.53;57.85;;;;;;;7.77;100.00;101715.94;4913806;29;20069;-85
2022/01/19 13:22:13;;;;;;;113.47;56.60;;;;;;;7.73;100.00;101711.84;4948123;29;20032;-85
2022/01/19 13:25:13;;;;;;;114.18;57.58;;;;;;;7.80;100.00;101705.16;4947468;29;20044;-83
2022/01/19 13:31:25;;;;;;;109.13;56.13;;;;;;;7.97;100.00;101695.97;4925416;29;20055;-82
2022/01/19 13:34:01;;;;;;;114.82;52.92;;;;;;;8.11;100.00;101687.84;4905117;29;20052;-85
2022/01/19 13:36:36;;;;;;;109.32;55.63;;;;;;;8.00;100.00;101679.03;4907018;29;20128;-83
2022/01/19 13:39:08;;;;;;;105.93;55.20;;;;;;;7.88;100.00;101674.72;4905735;29;20040;-84
2022/01/19 13:41:46;;;;;;;106.85;55.00;;;;;;;7.96;100.00;101672.31;4904261;29;20048;-85
2022/01/19 13:44:27;;;;;;;106.28;53.42;;;;;;;7.92;100.00;101670.88;4903706;29;20037;-83
2022/01/19 13:47:11;;;;;;;107.60;54.13;;;;;;;8.02;100.00;101656.03;4913442;29;20048;-82
2022/01/19 13:50:02;;;;;;;101.97;53.83;;;;;;;7.99;100.00;101661.50;4904574;29;20077;-80
2022/01/19 13:52:27;;;;;;;104.95;55.20;;;;;;;7.99;100.00;101661.50;4913899;29;20236;-80
2022/01/19 13:54:55;;;;;;;106.43;54.60;;;;;;;8.02;100.00;101656.03;4895530;29;20064;-82
2022/01/19 13:57:28;;;;;;;107.65;54.00;;;;;;;8.02;100.00;101659.47;4896532;29;20043;-83
2022/01/19 13:59:55;;;;;;;106.88;54.00;;;;;;;7.91;100.00;101654.19;4896884;29;20052;-85
2022/01/19 14:02:21;;;;;;;109.22;55.13;;;;;;;8.05;100.00;101642.59;4893116;29;20064;-83
2022/01/19 14:04:52;;;;;;;112.32;54.55;;;;;;;7.98;100.00;101644.88;4894991;29;20064;-83
2022/01/19 14:07:18;;;;;;;104.30;54.22;;;;;;;8.09;100.00;101646.66;4900748;29;20101;-82
2022/01/19 14:09:44;;;;;;;115.70;57.05;;;;;;;8.21;100.00;101646.56;4899114;29;20039;-82
2022/01/19 14:12:11;;;;;;;110.45;55.97;;;;;;;8.28;100.00;101641.69;4931041;29;20477;-83
2022/01/19 14:14:51;;;;;;;118.50;57.22;;;;;;;8.16;100.00;101638.13;4914072;29;20039;-82
2022/01/19 14:17:31;;;;;;;112.72;57.97;;;;;;;8.24;100.00;101641.03;4901520;29;20040;-82
2022/01/19 14:19:58;;;;;;;111.43;56.42;;;;;;;8.22;100.00;101637.66;4933211;29;20036;-83
2022/01/19 14:22:29;;;;;;;110.72;57.58;;;;;;;8.19;100.00;101632.63;4931943;29;20039;-85
2022/01/19 14:25:03;;;;;;;104.05;55.30;;;;;;;8.41;100.00;101623.91;4936344;29;20481;-84
2022/01/19 14:27:30;;;;;;;110.72;56.63;;;;;;;8.48;100.00;101619.81;4933124;29;20059;-84
2022/01/19 14:30:03;;;;;;;104.75;55.08;;;;;;;8.53;100.00;101620.28;4933635;29;20058;-84
2022/01/19 14:32:33;;;;;;;104.82;54.42;;;;;;;8.38;100.00;101618.88;4917936;29;20104;-82
2022/01/19 14:34:58;;;;;;;109.27;56.07;;;;;;;8.27;100.00;101616.19;4915844;29;20090;-83
2022/01/19 14:37:26;;;;;;;122.60;58.50;;;;;;;8.29;100.00;101617.78;4935791;29;20433;-83
2022/01/19 14:39:52;;;;;;;116.68;59.47;;;;;;;8.25;100.00;101604.91;4939125;29;20040;-81
2022/01/19 14:42:23;;;;;;;108.85;58.25;;;;;;;8.16;100.00;101600.34;4907392;29;20040;-82
2022/01/19 14:45:03;;;;;;;101.05;54.72;;;;;;;8.40;100.00;101605.53;4939702;29;20064;-83
2022/01/19 14:47:37;;;;;;;111.20;57.05;;;;;;;8.16;100.00;101601.19;4927730;29;20036;-83
2022/01/19 14:50:23;;;;;;;114.03;56.72;;;;;;;8.26;100.00;101601.28;4922697;29;20136;-83
2022/01/19 14:52:53;;;;;;;107.57;56.13;;;;;;;8.14;100.00;101591.69;4937788;29;20091;-84
2022/01/19 14:55:24;;;;;;;108.70;56.67;;;;;;;8.30;100.00;101597.47;4934331;29;20068;-83
2022/01/19 14:57:51;;;;;;;107.13;55.58;;;;;;;8.19;100.00;101589.53;4933359;29;20083;-84
2022/01/19 15:00:18;;;;;;;110.25;60.53;;;;;;;8.25;100.00;101583.78;4913334;29;20385;-84
2022/01/19 15:02:49;;;;;;;117.88;59.33;;;;;;;8.14;100.00;101586.41;4933129;29;20135;-82
2022/01/19 15:05:15;;;;;;;120.35;58.88;;;;;;;8.26;100.00;101582.81;4937959;29;20438;-87
2022/01/19 15:07:41;;;;;;;108.43;56.40;;;;;;;8.38;100.00;101579.25;4926999;29;20044;-85
2022/01/19 15:10:08;;;;;;;112.78;60.70;;;;;;;8.40;100.00;101572.03;4940621;29;20504;-85
2022/01/19 15:12:38;;;;;;;112.70;60.80;;;;;;;8.29;100.00;101570.22;4922740;29;20163;-84
2022/01/19 15:15:05;;;;;;;108.03;59.47;;;;;;;8.37;100.00;101572.28;4938297;29;20079;-87
2022/01/19 15:17:31;;;;;;;114.38;60.92;;;;;;;8.29;100.00;101569.38;4941886;29;20126;-85
2022/01/19 15:19:58;;;;;;;119.60;61.72;;;;;;;8.19;100.00;101563.13;4939166;29;20405;-85
2022/01/19 15:22:26;;;;;;;120.85;63.95;;;;;;;8.10;100.00;101558.56;4938309;29;20062;-86
2022/01/19 15:24:52;;;;;;;119.28;63.42;;;;;;;7.96;100.00;101553.53;4908437;29;20498;-83
2022/01/19 15:27:18;;;;;;;122.88;64.63;;;;;;;7.89;100.00;101549.72;4939032;29;20491;-86
2022/01/19 15:29:44;;;;;;;125.47;64.75;;;;;;;7.89;100.00;101544.44;4920064;29;20094;-84
2022/01/19 15:32:09;;;;;;;119.70;61.95;;;;;;;7.89;100.00;101544.44;4939222;29;20036;-84
2022/01/19 15:34:35;;;;;;;116.68;60.58;;;;;;;7.92;100.00;101549.47;4938053;29;20050;-85
2022/01/19 15:37:00;;;;;;;116.25;62.47;;;;;;;8.03;100.00;101541.53;4918867;29;20044;-83
2022/01/19 15:39:26;;;;;;;123.50;65.72;;;;;;;7.98;100.00;101543.72;4936610;29;20023;-83
2022/01/19 15:41:51;;;;;;;115.80;63.95;;;;;;;8.07;100.00;101542.97;4947029;29;20050;-84
2022/01/19 15:44:17;;;;;;;120.15;62.58;;;;;;;8.15;100.00;101537.94;4928114;29;20547;-83
2022/01/19 15:46:43;;;;;;;118.20;62.55;;;;;;;8.20;100.00;101533.13;4944741;29;20042;-84
2022/01/19 15:49:08;;;;;;;124.95;64.38;;;;;;;8.28;100.00;101533.41;4942458;29;20035;-84
2022/01/19 15:51:34;;;;;;;111.03;59.65;;;;;;;8.25;100.00;101525.69;4937568;29;20028;-85
2022/01/19 15:54:00;;;;;;;123.50;62.30;;;;;;;8.20;100.00;101531.31;4938768;29;20051;-85
2022/01/19 15:56:26;;;;;;;113.60;61.00;;;;;;;8.29;100.00;101527.13;4937106;29;20039;-85
2022/01/19 15:58:52;;;;;;;126.07;64.07;;;;;;;8.30;100.00;101526.19;4949925;29;20067;-82
2022/01/19 16:01:17;;;;;;;122.88;62.67;;;;;;;8.24;100.00;101527.47;4927401;29;20047;-84
2022/01/19 16:03:47;;;;;;;111.65;60.28;;;;;;;8.26;100.00;101529.97;4947629;29;20114;-82
2022/01/19 16:06:16;;;;;;;116.78;63.85;;;;;;;8.26;100.00;101528.19;4928264;29;20115;-86
2022/01/19 16:08:44;;;;;;;124.00;65.55;;;;;;;8.23;100.00;101520.50;4944362;29;20051;-84
2022/01/19 16:11:10;;;;;;;123.40;63.53;;;;;;;8.26;100.00;101522.06;4928351;29;20032;-84
2022/01/19 16:13:36;;;;;;;128.68;65.05;;;;;;;8.14;100.00;101523.91;4916186;29;20043;-85
2022/01/19 16:16:01;;;;;;;117.35;63.08;;;;;;;8.14;100.00;101521.25;4927427;29;20378;-81
2022/01/19 16:18:27;;;;;;;119.75;61.17;;;;;;;8.15;100.00;101522.09;4938099;29;20098;-82
2022/01/19 16:20:53;;;;;;;119.82;65.32;;;;;;;8.14;100.00;101518.63;4923445;29;20428;-85
2022/01/19 16:26:07;;;;;;;125.28;63.70;;;;;;;8.07;100.00;101522.69;4937877;29;20046;-85
2022/01/19 16:28:33;;;;;;;118.18;64.28;;;;;;;8.09;100.00;101525.19;4937936;29;20028;-84
2022/01/19 16:31:01;;;;;;;126.53;64.03;;;;;;;8.03;100.00;101531.81;4937021;29;20031;-91
2022/01/19 16:33:27;;;;;;;130.00;65.97;;;;;;;7.99;100.00;101535.66;4919928;29;20079;-87
2022/01/19 16:35:53;;;;;;;124.47;63.83;;;;;;;8.00;100.00;101528.56;4904463;29;20070;-86
2022/01/19 16:38:18;;;;;;;122.28;64.03;;;;;;;7.95;100.00;101533.41;4917865;29;20043;-86
2022/01/19 16:40:56;;;;;;;128.70;68.05;;;;;;;7.78;100.00;101532.91;4920101;29;20047;-86
2022/01/19 16:43:24;;;;;;;146.75;76.68;;;;;;;7.82;100.00;101534.34;4916688;29;20096;-84
2022/01/19 16:45:50;;;;;;;127.82;65.82;;;;;;;7.59;100.00;101540.56;4937403;29;20042;-91
2022/01/19 16:48:21;;;;;;;130.60;63.85;;;;;;;7.55;100.00;101536.50;4937502;29;20036;-86
2022/01/19 16:50:51;;;;;;;130.57;68.07;;;;;;;7.58;100.00;101530.97;4937804;29;20040;-85
2022/01/19 16:53:20;;;;;;;144.38;70.28;;;;;;;7.60;100.00;101523.78;4937388;29;20032;-84
2022/01/19 16:55:50;;;;;;;129.60;70.53;;;;;;;7.44;100.00;101528.56;4920573;29;20050;-87
2022/01/19 16:58:20;;;;;;;138.52;70.50;;;;;;;7.28;100.00;101520.13;4942481;29;20040;-87
2022/01/19 17:00:46;;;;;;;142.68;72.53;;;;;;;7.15;100.00;101527.28;4939676;29;20047;-84
2022/01/19 17:03:12;;;;;;;138.98;70.45;;;;;;;7.07;100.00;101513.84;4941462;29;20086;-87
2022/01/19 17:05:38;;;;;;;149.05;72.13;;;;;;;7.05;100.00;101515.75;4938762;29;20496;-84
2022/01/19 17:08:04;;;;;;;136.73;70.57;;;;;;;7.00;100.00;101510.81;4941437;29;20102;-89
2022/01/19 17:10:30;;;;;;;143.13;71.03;;;;;;;6.81;100.00;101514.94;4933988;29;20107;-88
2022/01/19 17:13:02;;;;;;;134.95;70.00;;;;;;;6.80;100.00;101514.09;4943035;29;20047;-86
2022/01/19 17:18:12;;;;;;;144.13;76.07;;;;;;;6.78;100.00;101507.25;4939414;29;20365;-89
2022/01/19 17:20:38;;;;;;;148.65;75.97;;;;;;;6.66;100.00;101501.94;4924837;29;20040;-85
2022/01/19 17:23:07;;;;;;;144.43;71.38;;;;;;;6.63;100.00;101511.84;4922715;29;20119;-82
2022/01/19 17:25:34;;;;;;;139.07;71.13;;;;;;;6.38;100.00;101499.66;4935694;29;20050;-82
2022/01/19 17:28:00;;;;;;;144.98;73.50;;;;;;;6.50;100.00;101493.50;4936180;29;20118;-84
2022/01/19 17:30:26;;;;;;;148.02;73.60;;;;;;;6.46;100.00;101507.84;4936010;29;20134;-90
2022/01/19 17:32:52;;;;;;;143.15;71.88;;;;;;;6.42;100.00;101502.91;4918708;29;20047;-84
2022/01/19 17:35:18;;;;;;;150.15;72.05;;;;;;;6.29;100.00;101505.59;4932378;29;20430;-85
2022/01/19 17:37:43;;;;;;;141.45;73.07;;;;;;;6.36;100.00;101501.56;4936527;29;20042;-86
2022/01/19 17:40:09;;;;;;;142.93;70.63;;;;;;;6.31;100.00;101503.69;4936195;29;20032;-84
2022/01/19 17:42:35;;;;;;;148.57;73.00;;;;;;;6.19;100.00;101494.91;4925237;29;20031;-86
2022/01/19 17:45:08;;;;;;;141.52;70.35;;;;;;;6.01;100.00;101490.94;4929419;29;20040;-86
2022/01/19 17:47:45;;;;;;;154.20;77.43;;;;;;;6.12;100.00;101490.16;4934216;29;20520;-85
2022/01/19 17:50:27;;;;;;;152.80;75.05;;;;;;;5.76;100.00;101495.38;4918501;29;20122;-85
2022/01/19 17:52:52;;;;;;;152.25;74.22;;;;;;;5.61;100.00;101487.59;4935280;29;20047;-89
2022/01/19 17:55:18;;;;;;;147.32;70.75;;;;;;;5.79;100.00;101484.63;4917505;29;20035;-87
2022/01/19 17:57:44;;;;;;;171.25;75.15;;;;;;;5.99;100.00;101484.09;4936138;29;20050;-89
2022/01/19 18:00:11;;;;;;;144.00;70.68;;;;;;;5.67;100.00;101487.16;4916207;29;20458;-87
2022/01/19 18:02:40;;;;;;;160.25;75.00;;;;;;;5.68;100.00;101483.59;4932493;29;20378;-85
2022/01/19 18:05:08;;;;;;;143.27;70.32;;;;;;;5.45;100.00;101480.88;4934745;29;20498;-88
2022/01/19 18:07:33;;;;;;;154.77;72.45;;;;;;;5.48;100.00;101475.41;4924673;29;20127;-87
2022/01/19 18:09:59;;;;;;;138.90;64.55;;;;;;;5.26;100.00;101485.72;4909637;29;20024;-87
2022/01/19 18:12:25;;;;;;;132.63;63.55;;;;;;;5.21;100.00;101480.78;4930122;29;20032;-88
2022/01/19 18:14:52;;;;;;;127.97;63.85;;;;;;;5.20;100.00;101487.00;4908592;29;20454;-87
2022/01/19 18:17:19;;;;;;;136.70;62.80;;;;;;;5.13;100.00;101480.47;4923359;29;20082;-88
2022/01/19 18:19:45;;;;;;;136.25;64.78;;;;;;;5.17;100.00;101484.56;4916692;29;20061;-87
2022/01/19 18:22:10;;;;;;;131.57;63.03;;;;;;;5.04;100.00;101481.91;4932208;29;20398;-85
2022/01/19 18:24:38;;;;;;;129.75;63.47;;;;;;;5.00;100.00;101480.47;4927420;29;20112;-83
2022/01/19 18:27:06;;;;;;;140.60;66.65;;;;;;;5.03;100.00;101474.16;4927508;29;20079;-85
2022/01/19 18:29:35;;;;;;;138.02;66.45;;;;;;;4.97;100.00;101479.81;4928170;29;20102;-88
2022/01/19 18:32:01;;;;;;;134.43;63.28;;;;;;;4.86;100.00;101472.66;4912504;29;20472;-88
2022/01/19 18:34:27;;;;;;;132.07;64.05;;;;;;;4.90;100.00;101473.28;4913403;29;20047;-87
2022/01/19 18:36:53;;;;;;;136.75;63.28;;;;;;;4.83;100.00;101477.25;4891585;29;20043;-85
2022/01/19 18:39:22;;;;;;;137.95;65.65;;;;;;;5.08;100.00;101472.88;4911833;29;20040;-91
2022/01/19 18:41:47;;;;;;;123.63;62.08;;;;;;;4.91;100.00;101464.44;4895014;29;20040;-90
2022/01/19 18:44:14;;;;;;;131.93;63.13;;;;;;;5.03;100.00;101467.13;4916592;29;20537;-90
2022/01/19 18:46:40;;;;;;;137.75;64.32;;;;;;;5.03;100.00;101456.59;4935151;29;20043;-89
2022/01/19 18:49:05;;;;;;;132.23;63.65;;;;;;;4.86;100.00;101456.91;4925819;29;20036;-88
2022/01/19 18:51:31;;;;;;;131.43;61.25;;;;;;;4.82;100.00;101455.41;4919084;29;20499;-85
2022/01/19 18:53:59;;;;;;;130.32;63.95;;;;;;;5.08;100.00;101458.91;4929562;29;20035;-86
2022/01/19 18:56:25;;;;;;;128.02;62.10;;;;;;;5.27;100.00;101451.44;4929710;29;20396;-88
2022/01/19 18:58:51;;;;;;;131.55;65.35;;;;;;;4.98;100.00;101427.16;4936204;29;20044;-85
2022/01/19 19:01:17;;;;;;;130.70;64.85;;;;;;;4.93;100.00;101425.81;4920882;29;20442;-85
2022/01/19 19:03:44;;;;;;;137.95;65.80;;;;;;;4.80;100.00;101427.56;4937008;29;20047;-83
2022/01/19 19:06:12;;;;;;;139.80;65.72;;;;;;;4.55;100.00;101429.19;4937322;29;20027;-84
2022/01/19 19:08:38;;;;;;;156.60;78.03;;;;;;;4.27;100.00;101429.34;4937407;29;20138;-85
2022/01/19 19:11:17;;;;;;;160.05;72.10;;;;;;;4.31;100.00;101428.16;4936973;29;20035;-86
2022/01/19 19:13:42;;;;;;;149.27;70.90;;;;;;;3.97;100.00;101428.69;4920854;29;20034;-83
2022/01/19 19:16:08;;;;;;;156.75;71.35;;;;;;;4.32;100.00;101436.91;4936739;29;20043;-84
2022/01/19 19:18:33;;;;;;;144.82;71.38;;;;;;;4.12;100.00;101440.81;4938648;29;20123;-83
2022/01/19 19:20:59;;;;;;;144.60;66.45;;;;;;;3.87;100.00;101427.59;4938652;29;20401;-88
2022/01/19 19:23:26;;;;;;;139.13;63.28;;;;;;;3.77;100.00;101431.72;4921379;29;20036;-87
2022/01/19 19:25:52;;;;;;;137.13;61.70;;;;;;;3.73;100.00;101435.47;4945463;29;20059;-86
2022/01/19 19:28:18;;;;;;;134.82;62.33;;;;;;;3.58;100.00;101442.50;4944399;29;20036;-88
2022/01/19 19:30:45;;;;;;;128.73;60.65;;;;;;;3.75;100.00;101438.81;4947097;29;20035;-87
2022/01/19 19:33:11;;;;;;;131.98;61.75;;;;;;;3.87;100.00;101441.53;4913987;29;20027;-86
2022/01/19 19:35:38;;;;;;;129.55;59.28;;;;;;;3.77;100.00;101442.22;4943645;29;20042;-87
2022/01/19 19:38:07;;;;;;;128.77;58.65;;;;;;;3.86;100.00;101441.63;4932891;29;20027;-86
2022/01/19 19:40:33;;;;;;;122.32;59.42;;;;;;;3.84;100.00;101439.13;4926081;29;20039;-83
2022/01/19 19:42:58;;;;;;;125.25;57.95;;;;;;;3.95;100.00;101435.78;4949017;29;20031;-86
2022/01/19 19:45:24;;;;;;;127.88;60.47;;;;;;;4.02;100.00;101431.84;4953364;29;20106;-85
2022/01/19 19:47:54;;;;;;;125.07;60.17;;;;;;;3.83;100.00;101421.69;4946124;28;20099;-85